sensor_id;sensor_type;location;lat;lon;timestamp;temperature;humidity
74376;HTU21D;62812;55.188;61.302;2022-10-16T05:27:10;11.43;62.08
74376;HTU21D;62812;55.188;61.302;2022-10-16T05:30:15;11.22;62.61
74376;HTU21D;62812;55.188;61.302;2022-10-16T05:36:43;11.07;63.73
74376;HTU21D;62812;55.188;61.302;2022-10-16T05:43:22;11.11;63.99
74376;HTU21D;62812;55.188;61.302;2022-10-16T05:47:07;11.44;62.02
74376;HTU21D;62812;55.188;61.302;2022-10-16T05:50:22;11.44;62.61
74376;HTU21D;62812;55.188;61.302;2022-10-16T05:52:54;11.60;62.81
74376;HTU21D;62812;55.188;61.302;2022-10-16T05:56:12;11.77;61.38
74376;HTU21D;62812;55.188;61.302;2022-10-16T05:59:05;11.84;62.01
74376;HTU21D;62812;55.188;61.302;2022-10-16T06:01:55;11.89;60.63
74376;HTU21D;62812;55.188;61.302;2022-10-16T06:04:53;12.02;60.41
74376;HTU21D;62812;55.188;61.302;2022-10-16T06:08:06;12.01;60.65
74376;HTU21D;62812;55.188;61.302;2022-10-16T06:11:26;12.15;59.48
74376;HTU21D;62812;55.188;61.302;2022-10-16T06:14:13;12.16;58.17
74376;HTU21D;62812;55.188;61.302;2022-10-16T06:19:13;12.05;58.84
74376;HTU21D;62812;55.188;61.302;2022-10-16T06:20:26;12.05;59.05
74376;HTU21D;62812;55.188;61.302;2022-10-16T06:23:20;12.00;58.39
74376;HTU21D;62812;55.188;61.302;2022-10-16T06:30:08;12.12;57.81
74376;HTU21D;62812;55.188;61.302;2022-10-16T06:33:05;12.10;58.91
74376;HTU21D;62812;55.188;61.302;2022-10-16T06:37:00;12.00;59.02
74376;HTU21D;62812;55.188;61.302;2022-10-16T06:39:49;11.99;61.12
74376;HTU21D;62812;55.188;61.302;2022-10-16T06:42:44;12.05;59.35
74376;HTU21D;62812;55.188;61.302;2022-10-16T06:49:15;11.96;59.42
74376;HTU21D;62812;55.188;61.302;2022-10-16T06:52:24;11.97;60.62
74376;HTU21D;62812;55.188;61.302;2022-10-16T06:55:20;11.79;59.21
74376;HTU21D;62812;55.188;61.302;2022-10-16T06:58:16;11.69;60.33
74376;HTU21D;62812;55.188;61.302;2022-10-16T07:01:12;11.69;60.20
74376;HTU21D;62812;55.188;61.302;2022-10-16T07:04:01;11.85;60.02
74376;HTU21D;62812;55.188;61.302;2022-10-16T07:06:55;11.96;59.07
74376;HTU21D;62812;55.188;61.302;2022-10-16T07:09:30;12.02;58.32
74376;HTU21D;62812;55.188;61.302;2022-10-16T07:12:03;12.11;60.32
74376;HTU21D;62812;55.188;61.302;2022-10-16T07:14:52;12.06;58.60
74376;HTU21D;62812;55.188;61.302;2022-10-16T07:17:39;11.93;59.19
74376;HTU21D;62812;55.188;61.302;2022-10-16T07:20:15;12.00;60.43
74376;HTU21D;62812;55.188;61.302;2022-10-16T07:23:34;11.99;58.53
74376;HTU21D;62812;55.188;61.302;2022-10-16T07:26:35;11.96;58.93
74376;HTU21D;62812;55.188;61.302;2022-10-16T07:31:11;11.98;59.52
74376;HTU21D;62812;55.188;61.302;2022-10-16T07:34:47;12.01;59.19
74376;HTU21D;62812;55.188;61.302;2022-10-16T07:36:19;11.89;59.13
74376;HTU21D;62812;55.188;61.302;2022-10-16T07:39:01;11.86;59.80
74376;HTU21D;62812;55.188;61.302;2022-10-16T07:41:36;11.85;60.52
74376;HTU21D;62812;55.188;61.302;2022-10-16T07:44:12;11.88;61.62
74376;HTU21D;62812;55.188;61.302;2022-10-16T07:46:47;12.02;61.00
74376;HTU21D;62812;55.188;61.302;2022-10-16T07:50:18;12.10;60.73
74376;HTU21D;62812;55.188;61.302;2022-10-16T07:52:55;12.06;60.89
74376;HTU21D;62812;55.188;61.302;2022-10-16T07:55:31;12.06;60.02
74376;HTU21D;62812;55.188;61.302;2022-10-16T07:58:04;12.10;59.64
74376;HTU21D;62812;55.188;61.302;2022-10-16T08:00:40;12.06;60.28
74376;HTU21D;62812;55.188;61.302;2022-10-16T08:03:18;12.12;57.85
74376;HTU21D;62812;55.188;61.302;2022-10-16T08:06:09;12.14;58.87
74376;HTU21D;62812;55.188;61.302;2022-10-16T08:08:43;12.18;57.90
74376;HTU21D;62812;55.188;61.302;2022-10-16T08:11:53;12.30;57.59
74376;HTU21D;62812;55.188;61.302;2022-10-16T08:14:56;12.47;55.55
74376;HTU21D;62812;55.188;61.302;2022-10-16T08:17:40;12.50;55.31
74376;HTU21D;62812;55.188;61.302;2022-10-16T08:20:27;12.58;54.02
74376;HTU21D;62812;55.188;61.302;2022-10-16T08:23:23;12.73;56.03
74376;HTU21D;62812;55.188;61.302;2022-10-16T08:26:16;12.77;53.40
74376;HTU21D;62812;55.188;61.302;2022-10-16T08:29:23;12.70;52.72
74376;HTU21D;62812;55.188;61.302;2022-10-16T08:32:18;12.65;57.09
74376;HTU21D;62812;55.188;61.302;2022-10-16T08:35:11;12.65;54.91
74376;HTU21D;62812;55.188;61.302;2022-10-16T08:38:39;12.62;54.39
74376;HTU21D;62812;55.188;61.302;2022-10-16T08:42:10;12.73;58.13
74376;HTU21D;62812;55.188;61.302;2022-10-16T08:45:33;12.89;55.19
74376;HTU21D;62812;55.188;61.302;2022-10-16T08:48:50;12.67;55.06
74376;HTU21D;62812;55.188;61.302;2022-10-16T08:51:38;12.66;54.67
74376;HTU21D;62812;55.188;61.302;2022-10-16T08:54:29;12.62;54.38
74376;HTU21D;62812;55.188;61.302;2022-10-16T08:57:26;12.56;55.72
74376;HTU21D;62812;55.188;61.302;2022-10-16T09:00:05;12.48;56.57
74376;HTU21D;62812;55.188;61.302;2022-10-16T09:02:58;12.36;59.68
74376;HTU21D;62812;55.188;61.302;2022-10-16T09:09:33;11.84;62.87
74376;HTU21D;62812;55.188;61.302;2022-10-16T09:12:17;11.79;63.11
74376;HTU21D;62812;55.188;61.302;2022-10-16T09:15:13;11.57;64.50
74376;HTU21D;62812;55.188;61.302;2022-10-16T09:18:21;11.55;65.46
74376;HTU21D;62812;55.188;61.302;2022-10-16T09:21:02;11.47;65.86
74376;HTU21D;62812;55.188;61.302;2022-10-16T09:23:47;11.40;66.07
74376;HTU21D;62812;55.188;61.302;2022-10-16T09:26:26;11.38;65.97
74376;HTU21D;62812;55.188;61.302;2022-10-16T09:29:13;11.38;66.11
74376;HTU21D;62812;55.188;61.302;2022-10-16T09:32:45;11.31;65.00
74376;HTU21D;62812;55.188;61.302;2022-10-16T09:35:58;11.37;65.19
74376;HTU21D;62812;55.188;61.302;2022-10-16T09:39:10;11.46;65.71
74376;HTU21D;62812;55.188;61.302;2022-10-16T10:06:49;12.10;62.44
74376;HTU21D;62812;55.188;61.302;2022-10-16T10:09:25;12.08;62.44
74376;HTU21D;62812;55.188;61.302;2022-10-16T10:12:03;12.17;62.45
74376;HTU21D;62812;55.188;61.302;2022-10-16T10:14:56;12.12;61.94
74376;HTU21D;62812;55.188;61.302;2022-10-16T10:17:31;11.99;63.06
74376;HTU21D;62812;55.188;61.302;2022-10-16T10:20:41;12.07;62.81
74376;HTU21D;62812;55.188;61.302;2022-10-16T10:26:51;11.94;63.69
74376;HTU21D;62812;55.188;61.302;2022-10-16T10:29:43;11.82;64.56
74376;HTU21D;62812;55.188;61.302;2022-10-16T10:32:27;11.87;63.69
74376;HTU21D;62812;55.188;61.302;2022-10-16T10:35:22;11.72;63.66
74376;HTU21D;62812;55.188;61.302;2022-10-16T10:38:48;11.60;63.78
74376;HTU21D;62812;55.188;61.302;2022-10-16T10:42:02;11.70;63.50
74376;HTU21D;62812;55.188;61.302;2022-10-16T10:44:56;11.59;63.76
74376;HTU21D;62812;55.188;61.302;2022-10-16T10:48:42;11.63;63.13
74376;HTU21D;62812;55.188;61.302;2022-10-16T10:52:32;11.71;62.89
74376;HTU21D;62812;55.188;61.302;2022-10-16T10:56:20;11.71;63.40
74376;HTU21D;62812;55.188;61.302;2022-10-16T11:02:37;11.63;64.76
74376;HTU21D;62812;55.188;61.302;2022-10-16T11:06:04;11.64;65.33
74376;HTU21D;62812;55.188;61.302;2022-10-16T11:08:43;11.61;65.33
74376;HTU21D;62812;55.188;61.302;2022-10-16T11:15:45;11.66;65.27
74376;HTU21D;62812;55.188;61.302;2022-10-16T11:19:09;11.54;64.94
74376;HTU21D;62812;55.188;61.302;2022-10-16T11:22:12;11.45;64.24
74376;HTU21D;62812;55.188;61.302;2022-10-16T11:25:18;11.27;64.23
74376;HTU21D;62812;55.188;61.302;2022-10-16T11:28:06;11.25;63.40
74376;HTU21D;62812;55.188;61.302;2022-10-16T11:30:59;11.20;63.66
74376;HTU21D;62812;55.188;61.302;2022-10-16T11:34:05;11.23;64.21
74376;HTU21D;62812;55.188;61.302;2022-10-16T11:37:14;11.25;62.10
74376;HTU21D;62812;55.188;61.302;2022-10-16T11:40:05;11.20;62.66
74376;HTU21D;62812;55.188;61.302;2022-10-16T11:43:06;11.17;63.45
74376;HTU21D;62812;55.188;61.302;2022-10-16T11:45:57;11.02;62.64
74376;HTU21D;62812;55.188;61.302;2022-10-16T11:49:25;11.02;62.33
74376;HTU21D;62812;55.188;61.302;2022-10-16T11:52:28;10.90;61.18
74376;HTU21D;62812;55.188;61.302;2022-10-16T11:55:29;10.71;64.27
74376;HTU21D;62812;55.188;61.302;2022-10-16T12:00:14;10.83;64.26
74376;HTU21D;62812;55.188;61.302;2022-10-16T12:02:32;10.89;64.43
74376;HTU21D;62812;55.188;61.302;2022-10-16T12:05:21;10.84;63.12
74376;HTU21D;62812;55.188;61.302;2022-10-16T12:08:05;10.84;63.57
74376;HTU21D;62812;55.188;61.302;2022-10-16T12:10:52;10.78;63.50
74376;HTU21D;62812;55.188;61.302;2022-10-16T12:13:43;10.73;63.79
74376;HTU21D;62812;55.188;61.302;2022-10-16T12:16:55;10.73;62.72
74376;HTU21D;62812;55.188;61.302;2022-10-16T12:19:30;10.66;62.02
74376;HTU21D;62812;55.188;61.302;2022-10-16T12:22:18;10.57;62.28
74376;HTU21D;62812;55.188;61.302;2022-10-16T12:24:58;10.43;62.50
74376;HTU21D;62812;55.188;61.302;2022-10-16T12:27:31;10.39;65.10
74376;HTU21D;62812;55.188;61.302;2022-10-16T12:30:14;10.34;63.05
74376;HTU21D;62812;55.188;61.302;2022-10-16T12:32:56;10.30;63.04
74376;HTU21D;62812;55.188;61.302;2022-10-16T12:35:30;10.22;64.45
74376;HTU21D;62812;55.188;61.302;2022-10-16T12:38:17;10.22;62.50
74376;HTU21D;62812;55.188;61.302;2022-10-16T12:40:57;10.24;64.41
74376;HTU21D;62812;55.188;61.302;2022-10-16T12:43:39;10.22;62.12
74376;HTU21D;62812;55.188;61.302;2022-10-16T12:46:23;10.18;63.57
74376;HTU21D;62812;55.188;61.302;2022-10-16T12:49:06;10.11;65.40
74376;HTU21D;62812;55.188;61.302;2022-10-16T12:51:45;10.09;62.66
74376;HTU21D;62812;55.188;61.302;2022-10-16T13:18:56;9.84;64.30
74376;HTU21D;62812;55.188;61.302;2022-10-16T13:21:45;9.81;62.95
74376;HTU21D;62812;55.188;61.302;2022-10-16T13:24:36;9.76;63.75
74376;HTU21D;62812;55.188;61.302;2022-10-16T13:27:35;9.70;62.62
74376;HTU21D;62812;55.188;61.302;2022-10-16T13:30:52;9.60;62.65
74376;HTU21D;62812;55.188;61.302;2022-10-16T13:42:04;9.68;64.93
74376;HTU21D;62812;55.188;61.302;2022-10-16T13:45:21;9.68;62.09
74376;HTU21D;62812;55.188;61.302;2022-10-16T13:56:32;9.46;64.69
74376;HTU21D;62812;55.188;61.302;2022-10-16T14:46:53;9.29;63.72
74376;HTU21D;62812;55.188;61.302;2022-10-16T14:50:19;9.34;63.28
74376;HTU21D;62812;55.188;61.302;2022-10-16T14:53:11;9.23;60.23
74376;HTU21D;62812;55.188;61.302;2022-10-16T14:55:55;9.20;62.13
74376;HTU21D;62812;55.188;61.302;2022-10-16T14:59:07;9.11;62.02
74376;HTU21D;62812;55.188;61.302;2022-10-16T15:42:20;8.28;63.36
74376;HTU21D;62812;55.188;61.302;2022-10-16T15:44:56;8.15;63.42
74376;HTU21D;62812;55.188;61.302;2022-10-16T15:47:59;8.01;64.10
74376;HTU21D;62812;55.188;61.302;2022-10-16T15:50:44;7.91;63.67
74376;HTU21D;62812;55.188;61.302;2022-10-16T15:53:52;7.85;63.69
74376;HTU21D;62812;55.188;61.302;2022-10-16T15:57:13;7.82;63.72
74376;HTU21D;62812;55.188;61.302;2022-10-16T16:04:24;7.60;64.01
74376;HTU21D;62812;55.188;61.302;2022-10-16T16:06:56;7.55;63.84
74376;HTU21D;62812;55.188;61.302;2022-10-16T16:09:47;7.55;64.23
74376;HTU21D;62812;55.188;61.302;2022-10-16T16:12:27;7.55;63.42
74376;HTU21D;62812;55.188;61.302;2022-10-16T16:15:11;7.52;64.37
74376;HTU21D;62812;55.188;61.302;2022-10-16T16:18:00;7.45;66.19
74376;HTU21D;62812;55.188;61.302;2022-10-16T16:20:35;7.38;65.79
74376;HTU21D;62812;55.188;61.302;2022-10-16T16:23:17;7.42;67.02
74376;HTU21D;62812;55.188;61.302;2022-10-16T16:26:28;7.40;64.53
74376;HTU21D;62812;55.188;61.302;2022-10-16T16:29:15;7.33;65.34
74376;HTU21D;62812;55.188;61.302;2022-10-16T16:32:15;7.29;65.40
74376;HTU21D;62812;55.188;61.302;2022-10-16T16:34:54;7.26;63.96
74376;HTU21D;62812;55.188;61.302;2022-10-16T16:55:45;6.97;64.20
74376;HTU21D;62812;55.188;61.302;2022-10-16T16:59:16;6.89;63.98
74376;HTU21D;62812;55.188;61.302;2022-10-16T17:03:20;6.82;64.37
74376;HTU21D;62812;55.188;61.302;2022-10-16T17:05:59;6.81;64.58
74376;HTU21D;62812;55.188;61.302;2022-10-16T17:08:42;6.78;64.58
74376;HTU21D;62812;55.188;61.302;2022-10-16T17:12:10;6.71;64.76
74376;HTU21D;62812;55.188;61.302;2022-10-16T17:15:22;6.72;64.89
74376;HTU21D;62812;55.188;61.302;2022-10-16T17:17:57;6.75;64.79
74376;HTU21D;62812;55.188;61.302;2022-10-16T17:21:04;6.83;64.50
74376;HTU21D;62812;55.188;61.302;2022-10-16T17:23:54;6.79;64.62
74376;HTU21D;62812;55.188;61.302;2022-10-16T17:30:52;6.73;64.68
74376;HTU21D;62812;55.188;61.302;2022-10-16T17:34:15;6.65;64.91
74376;HTU21D;62812;55.188;61.302;2022-10-16T17:37:05;6.59;66.40
74376;HTU21D;62812;55.188;61.302;2022-10-16T17:39:40;6.59;65.17
74376;HTU21D;62812;55.188;61.302;2022-10-16T17:42:16;6.58;66.14
74376;HTU21D;62812;55.188;61.302;2022-10-16T17:44:57;6.53;64.96
74376;HTU21D;62812;55.188;61.302;2022-10-16T17:50:38;6.51;65.66
74376;HTU21D;62812;55.188;61.302;2022-10-16T17:53:39;6.50;66.17
74376;HTU21D;62812;55.188;61.302;2022-10-16T17:56:34;6.46;65.17
74376;HTU21D;62812;55.188;61.302;2022-10-16T17:59:30;6.42;65.45
74376;HTU21D;62812;55.188;61.302;2022-10-16T18:02:04;6.37;66.36
74376;HTU21D;62812;55.188;61.302;2022-10-16T18:04:41;6.30;65.83
74376;HTU21D;62812;55.188;61.302;2022-10-16T18:07:38;6.27;66.36
74376;HTU21D;62812;55.188;61.302;2022-10-16T18:10:15;6.24;66.26
74376;HTU21D;62812;55.188;61.302;2022-10-16T18:13:08;6.20;66.49
74376;HTU21D;62812;55.188;61.302;2022-10-16T18:15:40;6.12;67.37
74376;HTU21D;62812;55.188;61.302;2022-10-16T18:18:35;6.16;66.96
74376;HTU21D;62812;55.188;61.302;2022-10-16T18:21:37;6.12;67.17
74376;HTU21D;62812;55.188;61.302;2022-10-16T18:24:15;6.11;67.40
74376;HTU21D;62812;55.188;61.302;2022-10-16T18:26:59;6.10;68.46
74376;HTU21D;62812;55.188;61.302;2022-10-16T18:29:44;6.02;67.47
74376;HTU21D;62812;55.188;61.302;2022-10-16T18:32:27;6.02;67.52
74376;HTU21D;62812;55.188;61.302;2022-10-16T18:34:59;6.00;67.59
74376;HTU21D;62812;55.188;61.302;2022-10-16T18:37:34;6.02;67.35
74376;HTU21D;62812;55.188;61.302;2022-10-16T18:46:51;6.02;67.72
74376;HTU21D;62812;55.188;61.302;2022-10-16T18:50:13;6.02;67.37
74376;HTU21D;62812;55.188;61.302;2022-10-16T18:53:22;5.98;67.65
74376;HTU21D;62812;55.188;61.302;2022-10-16T18:56:15;5.93;68.01
74376;HTU21D;62812;55.188;61.302;2022-10-16T18:59:13;5.90;68.33
74376;HTU21D;62812;55.188;61.302;2022-10-16T19:01:44;5.89;68.21
74376;HTU21D;62812;55.188;61.302;2022-10-16T19:04:46;5.87;68.17
74376;HTU21D;62812;55.188;61.302;2022-10-16T19:07:18;5.85;68.14
74376;HTU21D;62812;55.188;61.302;2022-10-16T19:09:53;5.80;68.51
74376;HTU21D;62812;55.188;61.302;2022-10-16T19:12:43;5.79;69.15
74376;HTU21D;62812;55.188;61.302;2022-10-16T19:15:17;5.76;68.94
74376;HTU21D;62812;55.188;61.302;2022-10-16T19:17:49;5.74;68.82
74376;HTU21D;62812;55.188;61.302;2022-10-16T19:20:23;5.75;69.58
74376;HTU21D;62812;55.188;61.302;2022-10-16T19:22:55;5.76;68.94
74376;HTU21D;62812;55.188;61.302;2022-10-16T19:25:29;5.76;68.95
74376;HTU21D;62812;55.188;61.302;2022-10-16T19:28:05;5.75;69.05
74376;HTU21D;62812;55.188;61.302;2022-10-16T19:30:41;5.72;68.84
74376;HTU21D;62812;55.188;61.302;2022-10-16T19:33:16;5.75;69.01
74376;HTU21D;62812;55.188;61.302;2022-10-16T19:35:50;5.77;69.10
74376;HTU21D;62812;55.188;61.302;2022-10-16T19:38:22;5.78;68.47
74376;HTU21D;62812;55.188;61.302;2022-10-16T19:40:54;5.79;68.48
74376;HTU21D;62812;55.188;61.302;2022-10-16T19:43:26;5.80;68.69
74376;HTU21D;62812;55.188;61.302;2022-10-16T19:46:02;5.80;68.49
74376;HTU21D;62812;55.188;61.302;2022-10-16T19:48:34;5.87;68.37
74376;HTU21D;62812;55.188;61.302;2022-10-16T19:51:13;5.92;67.85
74376;HTU21D;62812;55.188;61.302;2022-10-16T19:53:46;5.96;68.05
74376;HTU21D;62812;55.188;61.302;2022-10-16T19:56:18;6.01;67.71
74376;HTU21D;62812;55.188;61.302;2022-10-16T19:58:53;6.08;67.22
74376;HTU21D;62812;55.188;61.302;2022-10-16T20:01:27;6.14;66.93
74376;HTU21D;62812;55.188;61.302;2022-10-16T20:04:00;6.23;67.31
74376;HTU21D;62812;55.188;61.302;2022-10-16T20:06:33;6.29;66.27
74376;HTU21D;62812;55.188;61.302;2022-10-16T20:09:05;6.36;65.89
74376;HTU21D;62812;55.188;61.302;2022-10-16T20:11:37;6.39;65.39
74376;HTU21D;62812;55.188;61.302;2022-10-16T20:14:09;6.46;65.87
74376;HTU21D;62812;55.188;61.302;2022-10-16T20:16:41;6.52;65.41
74376;HTU21D;62812;55.188;61.302;2022-10-16T20:19:13;6.54;65.21
74376;HTU21D;62812;55.188;61.302;2022-10-16T20:21:49;6.49;65.14
74376;HTU21D;62812;55.188;61.302;2022-10-16T20:24:21;6.48;65.62
74376;HTU21D;62812;55.188;61.302;2022-10-16T20:26:53;6.46;65.56
74376;HTU21D;62812;55.188;61.302;2022-10-16T20:29:50;6.46;65.71
74376;HTU21D;62812;55.188;61.302;2022-10-16T20:32:45;6.54;65.19
74376;HTU21D;62812;55.188;61.302;2022-10-16T20:35:20;6.64;64.83
74376;HTU21D;62812;55.188;61.302;2022-10-16T20:37:57;6.68;64.43
74376;HTU21D;62812;55.188;61.302;2022-10-16T20:40:29;6.72;64.64
74376;HTU21D;62812;55.188;61.302;2022-10-16T20:43:01;6.81;63.90
74376;HTU21D;62812;55.188;61.302;2022-10-16T20:45:33;6.87;63.24
74376;HTU21D;62812;55.188;61.302;2022-10-16T20:48:06;6.90;63.53
74376;HTU21D;62812;55.188;61.302;2022-10-16T20:50:38;6.93;63.06
74376;HTU21D;62812;55.188;61.302;2022-10-16T20:53:12;6.91;63.08
74376;HTU21D;62812;55.188;61.302;2022-10-16T20:55:44;6.95;62.67
74376;HTU21D;62812;55.188;61.302;2022-10-16T20:58:16;7.01;62.26
74376;HTU21D;62812;55.188;61.302;2022-10-16T21:00:48;7.03;62.59
74376;HTU21D;62812;55.188;61.302;2022-10-16T21:03:20;7.01;62.65
74376;HTU21D;62812;55.188;61.302;2022-10-16T21:06:03;7.08;62.10
74376;HTU21D;62812;55.188;61.302;2022-10-16T21:08:38;7.05;63.11
74376;HTU21D;62812;55.188;61.302;2022-10-16T21:11:11;7.14;62.82
74376;HTU21D;62812;55.188;61.302;2022-10-16T21:13:44;7.20;62.11
74376;HTU21D;62812;55.188;61.302;2022-10-16T21:16:16;7.24;62.58
74376;HTU21D;62812;55.188;61.302;2022-10-16T21:18:48;7.20;62.41
74376;HTU21D;62812;55.188;61.302;2022-10-16T21:21:23;7.17;62.82
74376;HTU21D;62812;55.188;61.302;2022-10-16T21:23:58;7.19;64.01
74376;HTU21D;62812;55.188;61.302;2022-10-16T21:26:30;7.19;61.60
74376;HTU21D;62812;55.188;61.302;2022-10-16T21:29:04;7.12;63.53
74376;HTU21D;62812;55.188;61.302;2022-10-16T21:31:36;7.12;62.00
74376;HTU21D;62812;55.188;61.302;2022-10-16T21:34:11;7.12;62.35
74376;HTU21D;62812;55.188;61.302;2022-10-16T21:36:44;7.18;61.17
74376;HTU21D;62812;55.188;61.302;2022-10-16T21:39:18;7.23;61.31
74376;HTU21D;62812;55.188;61.302;2022-10-16T21:41:50;7.24;62.98
74376;HTU21D;62812;55.188;61.302;2022-10-16T21:44:23;7.25;62.51
74376;HTU21D;62812;55.188;61.302;2022-10-16T21:46:55;7.28;60.98
74376;HTU21D;62812;55.188;61.302;2022-10-16T21:49:27;7.35;61.87
74376;HTU21D;62812;55.188;61.302;2022-10-16T21:51:59;7.29;61.21
74376;HTU21D;62812;55.188;61.302;2022-10-16T21:54:33;7.27;61.43
74376;HTU21D;62812;55.188;61.302;2022-10-16T21:57:05;7.26;62.19
74376;HTU21D;62812;55.188;61.302;2022-10-16T21:59:37;7.29;61.39
74376;HTU21D;62812;55.188;61.302;2022-10-16T22:02:09;7.27;61.33
74376;HTU21D;62812;55.188;61.302;2022-10-16T22:04:41;7.34;61.88
74376;HTU21D;62812;55.188;61.302;2022-10-16T22:07:12;7.37;60.94
74376;HTU21D;62812;55.188;61.302;2022-10-16T22:09:46;7.37;61.58
74376;HTU21D;62812;55.188;61.302;2022-10-16T22:12:18;7.44;60.90
74376;HTU21D;62812;55.188;61.302;2022-10-16T22:14:50;7.46;60.87
74376;HTU21D;62812;55.188;61.302;2022-10-16T22:17:22;7.42;61.43
74376;HTU21D;62812;55.188;61.302;2022-10-16T22:19:54;7.34;62.47
74376;HTU21D;62812;55.188;61.302;2022-10-16T22:22:26;7.27;62.50
74376;HTU21D;62812;55.188;61.302;2022-10-16T22:25:00;7.19;62.38
74376;HTU21D;62812;55.188;61.302;2022-10-16T22:27:32;7.08;63.07
74376;HTU21D;62812;55.188;61.302;2022-10-16T22:30:04;6.98;63.53
74376;HTU21D;62812;55.188;61.302;2022-10-16T22:32:37;6.97;63.08
74376;HTU21D;62812;55.188;61.302;2022-10-16T22:35:11;6.94;63.73
74376;HTU21D;62812;55.188;61.302;2022-10-16T22:37:44;6.90;63.92
74376;HTU21D;62812;55.188;61.302;2022-10-16T22:40:17;6.85;64.14
74376;HTU21D;62812;55.188;61.302;2022-10-16T22:42:49;6.84;64.63
74376;HTU21D;62812;55.188;61.302;2022-10-16T22:45:21;6.79;64.97
74376;HTU21D;62812;55.188;61.302;2022-10-16T22:47:52;6.75;65.11
74376;HTU21D;62812;55.188;61.302;2022-10-16T22:50:25;6.70;65.03
74376;HTU21D;62812;55.188;61.302;2022-10-16T22:52:57;6.64;65.50
74376;HTU21D;62812;55.188;61.302;2022-10-16T22:55:30;6.61;66.65
74376;HTU21D;62812;55.188;61.302;2022-10-16T22:58:02;6.70;65.56
74376;HTU21D;62812;55.188;61.302;2022-10-16T23:00:34;6.75;66.04
74376;HTU21D;62812;55.188;61.302;2022-10-16T23:03:06;6.83;66.20
74376;HTU21D;62812;55.188;61.302;2022-10-16T23:05:38;6.96;65.39
74376;HTU21D;62812;55.188;61.302;2022-10-16T23:08:10;7.09;64.85
74376;HTU21D;62812;55.188;61.302;2022-10-16T23:10:45;7.04;64.08
74376;HTU21D;62812;55.188;61.302;2022-10-16T23:13:17;7.04;65.12
74376;HTU21D;62812;55.188;61.302;2022-10-16T23:15:50;7.03;64.11
74376;HTU21D;62812;55.188;61.302;2022-10-16T23:18:21;7.07;64.69
74376;HTU21D;62812;55.188;61.302;2022-10-16T23:20:53;7.10;64.45
74376;HTU21D;62812;55.188;61.302;2022-10-16T23:23:26;7.14;64.15
74376;HTU21D;62812;55.188;61.302;2022-10-16T23:26:01;7.08;64.05
74376;HTU21D;62812;55.188;61.302;2022-10-16T23:28:33;7.07;64.34
74376;HTU21D;62812;55.188;61.302;2022-10-16T23:31:08;6.97;64.95
74376;HTU21D;62812;55.188;61.302;2022-10-16T23:33:41;6.87;65.22
74376;HTU21D;62812;55.188;61.302;2022-10-16T23:36:17;6.79;65.25
74376;HTU21D;62812;55.188;61.302;2022-10-16T23:38:51;6.72;65.50
74376;HTU21D;62812;55.188;61.302;2022-10-16T23:41:25;6.73;65.50
74376;HTU21D;62812;55.188;61.302;2022-10-16T23:43:57;6.73;65.65
74376;HTU21D;62812;55.188;61.302;2022-10-16T23:46:32;6.70;65.35
74376;HTU21D;62812;55.188;61.302;2022-10-16T23:49:03;6.71;65.10
74376;HTU21D;62812;55.188;61.302;2022-10-16T23:51:43;6.70;65.30
74376;HTU21D;62812;55.188;61.302;2022-10-16T23:54:24;6.65;65.66
74376;HTU21D;62812;55.188;61.302;2022-10-16T23:56:57;6.65;66.07
74376;HTU21D;62812;55.188;61.302;2022-10-16T23:59:31;6.71;65.33
